Majenica, Indiana
Current Conditions -  °F | °C
As of 3:15 PM on Monday 22 Dec 2014 (Local Time) from KHHG Reporting Station
Overcast Overcast  
Wind Chill: 31°   Ceiling: 1200
Heat Index: 37°   Visibility: 7mi
Dew Point: 34°   Wind: 8mph
Humidity: 89%   Direction: 100°E
Pressure: 29.83"   Gusts: NA
Location:  40.9238°N, 85.5001°W
Report Text: KHHG 222015Z AUTO 10007KT 7SM BKN012 OVC019 03/01 A2983 RMK AO2 T00270010
Loading
Personal Weather Stations






























Interactive Weather Map New forecast layout! Learn more

10-Day Weather Forecast

Advertisements
Track Severe Weather on mobile